Time;durP1;ratioP1;P1;durP2;ratioP2;P2;SDS_P1;SDS_P2;PMS_P1;PMS_P2;Temp;Humidity;BMP_temperature;BMP_pressure;BME280_temperature;BME280_humidity;BME280_pressure;Samples;Min_cycle;Max_cycle;Signal;HPM_P1;HPM_P2
2023/12/19 00:01:14;;;;;;;16.80;6.77;;;6.80;99.90;;;;;;5224732;28;20190;-49
2023/12/19 00:03:44;;;;;;;9.27;6.10;;;6.80;99.90;;;;;;5223182;28;20176;-49
2023/12/19 00:06:15;;;;;;;9.87;5.97;;;6.80;99.90;;;;;;5218261;28;20187;-48
2023/12/19 00:08:46;;;;;;;8.77;6.70;;;6.80;99.90;;;;;;5226498;28;20281;-49
2023/12/19 00:11:16;;;;;;;11.73;6.50;;;6.80;99.90;;;;;;5224347;28;20587;-49
2023/12/19 00:13:47;;;;;;;7.60;6.90;;;6.80;99.90;;;;;;5224611;28;20183;-51
2023/12/19 00:16:18;;;;;;;9.90;5.73;;;6.70;99.90;;;;;;5222517;28;20183;-49
2023/12/19 00:18:48;;;;;;;9.93;6.40;;;6.70;99.90;;;;;;5217265;28;20269;-47
2023/12/19 00:21:19;;;;;;;5.50;5.00;;;6.80;99.90;;;;;;5220753;28;20646;-50
2023/12/19 00:23:50;;;;;;;8.40;5.80;;;6.80;99.90;;;;;;5224955;28;20211;-47
2023/12/19 00:26:21;;;;;;;6.23;5.57;;;6.90;99.90;;;;;;5221796;28;20469;-49
2023/12/19 00:28:52;;;;;;;6.90;5.27;;;6.90;99.90;;;;;;5223390;28;20187;-47
2023/12/19 00:31:23;;;;;;;6.07;4.97;;;6.90;99.90;;;;;;5203820;28;20446;-49
2023/12/19 00:33:53;;;;;;;5.80;5.30;;;6.80;99.90;;;;;;5224565;28;20270;-49
2023/12/19 00:36:24;;;;;;;9.83;5.43;;;6.90;99.90;;;;;;5222877;28;20248;-48
2023/12/19 00:38:55;;;;;;;7.77;5.30;;;6.80;99.90;;;;;;5224234;28;20305;-46
2023/12/19 00:41:25;;;;;;;6.97;5.20;;;6.80;99.90;;;;;;5223766;28;20248;-49
2023/12/19 00:43:56;;;;;;;7.73;6.03;;;6.90;99.90;;;;;;5219215;28;20337;-50
2023/12/19 00:46:26;;;;;;;5.77;5.27;;;6.80;99.90;;;;;;5222666;28;20191;-53
2023/12/19 00:48:57;;;;;;;4.97;4.40;;;6.80;99.90;;;;;;5205741;28;20213;-49
2023/12/19 00:51:27;;;;;;;5.57;5.07;;;6.80;99.90;;;;;;5223803;28;20175;-50
2023/12/19 00:53:58;;;;;;;5.00;4.50;;;6.90;99.90;;;;;;5225282;28;20179;-48
2023/12/19 00:56:29;;;;;;;5.67;4.67;;;6.90;99.90;;;;;;5222338;28;20199;-49
2023/12/19 00:59:00;;;;;;;5.50;5.00;;;6.90;99.90;;;;;;5206557;28;20608;-47
2023/12/19 01:01:30;;;;;;;9.03;5.47;;;7.00;99.90;;;;;;5208229;28;20837;-47
2023/12/19 01:04:01;;;;;;;6.43;4.97;;;6.90;99.90;;;;;;5223549;28;20190;-49
2023/12/19 01:06:31;;;;;;;12.33;5.10;;;7.00;99.90;;;;;;5224170;28;20217;-48
2023/12/19 01:09:04;;;;;;;5.97;4.77;;;6.90;99.90;;;;;;5221738;28;20199;-48
2023/12/19 01:11:34;;;;;;;6.77;4.77;;;6.90;99.90;;;;;;5220748;28;20196;-48
2023/12/19 01:14:05;;;;;;;6.13;4.70;;;7.00;99.90;;;;;;5223195;28;22632;-49
2023/12/19 01:16:36;;;;;;;5.00;4.60;;;6.90;99.90;;;;;;5223159;28;20643;-49
2023/12/19 01:19:09;;;;;;;5.60;4.57;;;7.00;99.90;;;;;;5223048;28;20199;-49
2023/12/19 01:21:40;;;;;;;7.30;4.83;;;7.00;99.90;;;;;;5223160;28;20368;-50
2023/12/19 01:24:10;;;;;;;9.00;5.13;;;7.00;99.90;;;;;;5225092;28;20529;-52
2023/12/19 01:26:41;;;;;;;7.60;5.00;;;7.00;99.90;;;;;;5223438;28;20645;-47
2023/12/19 01:29:12;;;;;;;6.90;4.63;;;7.00;99.90;;;;;;5225100;28;20207;-48
2023/12/19 01:31:42;;;;;;;6.57;4.40;;;7.00;99.90;;;;;;5223065;28;20701;-48
2023/12/19 01:34:13;;;;;;;6.77;5.40;;;7.00;99.90;;;;;;5223016;28;20531;-48
2023/12/19 01:36:45;;;;;;;4.70;4.27;;;7.00;99.90;;;;;;5221402;28;20183;-49
2023/12/19 01:39:16;;;;;;;6.40;4.67;;;7.00;99.90;;;;;;5222147;28;20221;-49
2023/12/19 01:41:47;;;;;;;4.83;4.43;;;7.00;99.90;;;;;;5220319;28;20437;-48
2023/12/19 01:44:18;;;;;;;8.83;4.83;;;7.00;99.90;;;;;;5218234;28;20195;-49
2023/12/19 01:46:49;;;;;;;4.17;3.97;;;7.00;99.90;;;;;;5219384;28;20547;-50
2023/12/19 01:49:20;;;;;;;8.00;5.37;;;7.10;99.90;;;;;;5217955;28;20446;-49
2023/12/19 01:51:50;;;;;;;4.70;4.17;;;7.00;99.90;;;;;;5219838;28;20179;-49
2023/12/19 01:54:22;;;;;;;5.63;5.13;;;7.00;99.90;;;;;;5221751;28;20179;-48
2023/12/19 01:56:52;;;;;;;5.80;5.30;;;7.00;99.90;;;;;;5217741;28;20203;-49
2023/12/19 01:59:23;;;;;;;6.87;5.07;;;6.90;99.90;;;;;;5217820;28;20457;-48
2023/12/19 02:01:54;;;;;;;7.10;4.57;;;6.80;99.90;;;;;;5218018;28;20565;-49
2023/12/19 02:04:25;;;;;;;5.67;5.13;;;6.90;99.90;;;;;;5222195;28;20464;-50
2023/12/19 02:06:56;;;;;;;5.73;4.53;;;7.00;99.90;;;;;;5219078;28;20453;-49
2023/12/19 02:09:27;;;;;;;7.60;5.20;;;7.00;99.90;;;;;;5223699;28;20214;-49
2023/12/19 02:11:58;;;;;;;7.57;5.27;;;7.00;99.90;;;;;;5206264;28;20191;-50
2023/12/19 02:14:29;;;;;;;11.03;5.40;;;7.00;99.90;;;;;;5221695;28;20922;-49
2023/12/19 02:16:59;;;;;;;6.70;5.30;;;6.90;99.90;;;;;;5220693;28;20471;-51
2023/12/19 02:19:30;;;;;;;17.07;5.40;;;6.90;99.90;;;;;;5217401;28;20294;-51
2023/12/19 02:22:00;;;;;;;6.33;4.87;;;6.80;99.90;;;;;;5216302;28;20683;-50
2023/12/19 02:24:31;;;;;;;4.97;4.57;;;6.90;99.90;;;;;;5222372;28;20179;-49
2023/12/19 02:27:02;;;;;;;7.30;5.40;;;6.80;99.90;;;;;;5234895;28;20274;-52
2023/12/19 02:29:34;;;;;;;5.77;5.10;;;6.90;99.90;;;;;;5215004;28;20576;-51
2023/12/19 02:32:04;;;;;;;5.27;4.77;;;6.90;99.90;;;;;;5219057;28;20549;-51
2023/12/19 02:34:35;;;;;;;4.80;4.40;;;6.90;99.90;;;;;;5222525;28;20437;-50
2023/12/19 02:37:06;;;;;;;5.80;4.80;;;6.90;99.90;;;;;;5220425;28;20264;-51
2023/12/19 02:39:36;;;;;;;6.33;4.83;;;7.00;99.90;;;;;;5217702;28;20210;-51
2023/12/19 02:42:07;;;;;;;6.10;5.10;;;7.10;99.90;;;;;;5217468;28;20205;-51
2023/12/19 02:44:38;;;;;;;5.77;5.27;;;7.00;99.90;;;;;;5219967;28;20179;-52
2023/12/19 02:47:08;;;;;;;5.87;5.37;;;7.00;99.90;;;;;;5203363;28;20254;-50
2023/12/19 02:49:39;;;;;;;7.20;5.73;;;7.00;99.90;;;;;;5222789;28;20238;-49
2023/12/19 02:52:09;;;;;;;8.17;5.30;;;6.90;99.90;;;;;;5218330;28;20180;-50
2023/12/19 02:54:40;;;;;;;5.70;5.10;;;6.90;99.90;;;;;;5213974;28;20179;-51
2023/12/19 02:57:10;;;;;;;7.30;5.20;;;6.90;99.90;;;;;;5218526;28;20294;-52
2023/12/19 02:59:41;;;;;;;7.77;5.70;;;7.00;99.90;;;;;;5219299;28;20207;-52
2023/12/19 03:02:12;;;;;;;6.97;6.00;;;6.90;99.90;;;;;;5216924;28;20195;-51
2023/12/19 03:04:42;;;;;;;7.80;5.80;;;6.90;99.90;;;;;;5219874;28;20265;-51
2023/12/19 03:07:13;;;;;;;8.27;5.63;;;6.90;99.90;;;;;;5220056;28;20262;-50
2023/12/19 03:09:44;;;;;;;6.93;6.07;;;7.00;99.90;;;;;;5221216;28;20608;-50
2023/12/19 03:12:15;;;;;;;8.43;5.73;;;7.00;99.90;;;;;;5223070;28;20187;-51
2023/12/19 03:14:45;;;;;;;7.17;5.70;;;7.00;99.90;;;;;;5220286;28;20245;-50
2023/12/19 03:17:16;;;;;;;7.63;5.77;;;7.10;99.90;;;;;;5218105;28;20271;-51
2023/12/19 03:19:46;;;;;;;6.07;5.47;;;7.10;99.90;;;;;;5221588;28;20213;-51
2023/12/19 03:22:17;;;;;;;6.13;5.63;;;7.00;99.90;;;;;;5219706;28;20246;-50
2023/12/19 03:24:48;;;;;;;9.20;6.63;;;6.90;99.90;;;;;;5220269;28;20282;-50
2023/12/19 03:27:18;;;;;;;8.00;6.43;;;7.00;99.90;;;;;;5221043;28;20628;-51
2023/12/19 03:29:49;;;;;;;9.20;6.37;;;7.00;99.90;;;;;;5217241;28;20677;-51
2023/12/19 03:32:19;;;;;;;8.60;7.03;;;7.00;99.90;;;;;;5220356;28;20202;-52
2023/12/19 03:34:50;;;;;;;9.60;7.17;;;7.10;99.90;;;;;;5221743;28;20187;-50
2023/12/19 03:37:21;;;;;;;9.67;6.63;;;7.10;99.90;;;;;;5220172;28;20234;-52
2023/12/19 03:39:51;;;;;;;7.50;6.80;;;7.10;99.90;;;;;;5217768;28;20316;-49
2023/12/19 03:42:22;;;;;;;11.33;7.10;;;7.00;99.90;;;;;;5221772;28;20190;-49
2023/12/19 03:44:52;;;;;;;11.20;7.40;;;7.10;99.90;;;;;;5218211;28;20187;-51
2023/12/19 03:47:23;;;;;;;8.60;6.30;;;7.10;99.90;;;;;;5214476;28;20278;-50
2023/12/19 03:49:54;;;;;;;8.13;6.80;;;7.10;99.90;;;;;;5221361;28;20203;-49
2023/12/19 03:52:24;;;;;;;12.40;7.50;;;7.10;99.90;;;;;;5218815;28;20219;-50
2023/12/19 03:54:55;;;;;;;10.03;6.80;;;7.10;99.90;;;;;;5219676;28;20218;-50
2023/12/19 03:57:26;;;;;;;7.47;6.70;;;7.10;99.90;;;;;;5220332;28;20697;-50
2023/12/19 03:59:57;;;;;;;7.80;7.00;;;7.10;99.90;;;;;;5219762;28;20234;-50
2023/12/19 04:02:27;;;;;;;9.80;7.73;;;7.20;99.90;;;;;;5219322;28;20519;-50
2023/12/19 04:04:58;;;;;;;11.27;7.00;;;7.30;99.90;;;;;;5218491;28;20198;-49
2023/12/19 04:07:29;;;;;;;10.07;7.37;;;7.20;99.90;;;;;;5219999;28;20209;-50
2023/12/19 04:10:00;;;;;;;10.20;7.60;;;7.10;99.90;;;;;;5253629;22;20265;-50
2023/12/19 04:12:40;;;;;;;11.03;7.03;;;7.30;99.90;;;;;;5246527;28;20243;-52
2023/12/19 04:15:11;;;;;;;8.20;7.20;;;7.20;99.90;;;;;;5241667;28;20436;-50
2023/12/19 04:17:42;;;;;;;9.33;7.13;;;7.20;99.90;;;;;;5246153;28;20538;-50
2023/12/19 04:20:13;;;;;;;10.03;6.97;;;7.20;99.90;;;;;;5248558;28;20453;-49
2023/12/19 04:22:44;;;;;;;8.47;6.80;;;7.10;99.90;;;;;;5247100;28;20802;-50
2023/12/19 04:25:15;;;;;;;9.90;7.00;;;7.20;99.90;;;;;;5247654;28;20429;-50
2023/12/19 04:27:46;;;;;;;8.07;7.27;;;7.20;99.90;;;;;;5249650;28;20189;-49
2023/12/19 04:30:17;;;;;;;8.07;7.23;;;7.20;99.90;;;;;;5246719;28;21016;-49
2023/12/19 04:32:48;;;;;;;8.50;7.23;;;7.20;99.90;;;;;;5245149;28;20205;-49
2023/12/19 04:35:19;;;;;;;13.10;7.40;;;7.20;99.90;;;;;;5249830;28;20405;-49
2023/12/19 04:37:50;;;;;;;8.67;6.87;;;7.10;99.90;;;;;;5246647;28;20464;-49
2023/12/19 04:40:21;;;;;;;10.17;8.50;;;7.20;99.90;;;;;;5244789;28;20457;-50
2023/12/19 04:42:51;;;;;;;8.50;6.80;;;7.20;99.90;;;;;;5242010;28;20436;-49
2023/12/19 04:45:22;;;;;;;11.40;7.63;;;7.20;99.90;;;;;;5247835;28;20224;-49
2023/12/19 04:47:56;;;;;;;10.20;7.00;;;7.20;99.90;;;;;;5244692;28;20240;-51
2023/12/19 04:50:26;;;;;;;11.30;8.03;;;7.20;99.90;;;;;;5245748;28;20464;-50
2023/12/19 04:52:57;;;;;;;11.00;8.43;;;7.20;99.90;;;;;;5246509;28;20433;-50
2023/12/19 04:55:28;;;;;;;12.47;9.00;;;7.30;99.90;;;;;;5241819;28;20624;-49
2023/12/19 04:58:00;;;;;;;11.53;7.47;;;7.30;99.90;;;;;;5246851;28;20615;-50
2023/12/19 05:00:33;;;;;;;10.53;7.70;;;7.30;99.90;;;;;;5226408;28;20210;-51
2023/12/19 05:03:13;;;;;;;8.73;7.37;;;7.30;99.90;;;;;;5243917;28;20532;-50
2023/12/19 05:05:50;;;;;;;10.70;7.50;;;7.30;99.90;;;;;;5240624;28;20433;-52
2023/12/19 05:08:21;;;;;;;13.13;8.90;;;7.30;99.90;;;;;;5244633;28;20434;-51
2023/12/19 05:10:52;;;;;;;13.00;8.17;;;7.40;99.90;;;;;;5247925;28;20456;-51
2023/12/19 05:13:23;;;;;;;10.87;7.60;;;7.40;99.90;;;;;;5244690;28;20191;-49
2023/12/19 05:15:56;;;;;;;12.03;8.27;;;7.40;99.90;;;;;;5228385;28;20182;-49
2023/12/19 05:18:27;;;;;;;9.80;7.57;;;7.30;99.90;;;;;;5246905;28;20468;-50
2023/12/19 05:20:58;;;;;;;13.90;7.83;;;7.40;99.90;;;;;;5244343;28;20474;-51
2023/12/19 05:23:29;;;;;;;10.20;7.50;;;7.30;99.90;;;;;;5244749;28;20232;-51
2023/12/19 05:25:59;;;;;;;9.03;8.13;;;7.30;99.90;;;;;;5247428;28;20432;-49
2023/12/19 05:28:31;;;;;;;12.37;9.07;;;7.40;99.90;;;;;;5244244;28;20191;-50
2023/12/19 05:31:05;;;;;;;9.20;7.63;;;7.30;99.90;;;;;;5246478;28;20206;-51
2023/12/19 05:33:37;;;;;;;10.70;7.73;;;7.50;99.90;;;;;;5242220;28;20938;-52
2023/12/19 05:36:11;;;;;;;8.60;6.60;;;7.40;99.90;;;;;;5245517;28;20802;-51
2023/12/19 05:38:42;;;;;;;11.47;7.07;;;7.40;99.90;;;;;;5245073;28;20452;-51
2023/12/19 05:41:16;;;;;;;12.33;8.50;;;7.40;99.90;;;;;;5247498;28;20449;-51
2023/12/19 05:43:47;;;;;;;9.80;7.23;;;7.40;99.90;;;;;;5245694;28;20202;-51
2023/12/19 05:46:18;;;;;;;8.50;7.03;;;7.40;99.90;;;;;;5245646;28;20440;-49
2023/12/19 05:48:49;;;;;;;7.70;6.60;;;7.50;99.90;;;;;;5243121;28;20425;-49
2023/12/19 05:51:20;;;;;;;9.00;7.50;;;7.40;99.90;;;;;;5243250;28;20963;-50
2023/12/19 05:53:51;;;;;;;12.03;7.40;;;7.40;99.90;;;;;;5245309;28;20174;-49
2023/12/19 05:56:22;;;;;;;11.47;7.50;;;7.30;99.90;;;;;;5242667;28;20266;-49
2023/12/19 05:58:53;;;;;;;10.57;7.10;;;7.30;99.90;;;;;;5243818;28;20467;-50
2023/12/19 06:01:24;;;;;;;10.37;7.80;;;7.30;99.90;;;;;;5244723;28;20957;-49
2023/12/19 06:03:55;;;;;;;9.57;7.50;;;7.30;99.90;;;;;;5246532;28;20175;-50
2023/12/19 06:06:26;;;;;;;9.50;7.40;;;7.30;99.90;;;;;;5246655;28;20175;-51
2023/12/19 06:08:56;;;;;;;7.33;6.60;;;7.30;99.90;;;;;;5240521;28;20224;-50
2023/12/19 06:11:27;;;;;;;9.73;8.00;;;7.40;99.90;;;;;;5245533;28;20230;-51
2023/12/19 06:13:58;;;;;;;9.90;7.20;;;7.40;99.90;;;;;;5245384;28;20186;-51
2023/12/19 06:16:29;;;;;;;10.37;7.90;;;7.40;99.90;;;;;;5244291;28;20557;-52
2023/12/19 06:19:07;;;;;;;8.10;7.37;;;7.40;99.90;;;;;;5246457;28;20285;-50
2023/12/19 06:21:39;;;;;;;12.30;7.80;;;7.40;99.90;;;;;;5245159;28;20178;-51
2023/12/19 06:24:09;;;;;;;9.00;7.03;;;7.40;99.90;;;;;;5245722;28;20428;-52
2023/12/19 06:26:40;;;;;;;8.93;7.47;;;7.40;99.90;;;;;;5245860;28;20439;-51
2023/12/19 06:29:11;;;;;;;12.67;7.40;;;7.40;99.90;;;;;;5241340;28;20598;-51
2023/12/19 06:31:43;;;;;;;7.40;6.70;;;7.30;99.90;;;;;;5245168;28;20183;-54
2023/12/19 06:34:14;;;;;;;10.13;7.47;;;7.50;99.90;;;;;;5246615;28;20232;-50
2023/12/19 06:36:46;;;;;;;8.13;6.40;;;7.40;99.90;;;;;;5241894;28;20444;-49
2023/12/19 06:39:17;;;;;;;7.43;6.77;;;7.40;99.90;;;;;;5248075;28;21168;-50
2023/12/19 06:41:48;;;;;;;8.87;6.10;;;7.40;99.90;;;;;;5247119;28;20441;-49
2023/12/19 06:44:19;;;;;;;6.87;6.17;;;7.40;99.90;;;;;;5230517;28;20466;-50
2023/12/19 06:46:50;;;;;;;6.83;6.13;;;7.30;99.90;;;;;;5245388;28;20439;-49
2023/12/19 06:49:22;;;;;;;7.33;6.00;;;7.10;99.90;;;;;;5244222;28;20471;-51
2023/12/19 06:51:53;;;;;;;5.17;4.73;;;7.20;99.90;;;;;;5244677;28;20431;-50
2023/12/19 06:54:24;;;;;;;7.20;5.93;;;7.20;99.90;;;;;;5247061;28;20437;-50
2023/12/19 06:56:55;;;;;;;6.10;5.03;;;7.20;99.90;;;;;;5244276;28;20816;-49
2023/12/19 06:59:32;;;;;;;20.80;6.83;;;7.20;99.90;;;;;;5244474;28;20198;-50
2023/12/19 07:02:03;;;;;;;8.10;5.00;;;7.20;99.90;;;;;;5244213;28;20965;-52
2023/12/19 07:04:34;;;;;;;8.03;5.03;;;7.40;99.90;;;;;;5243675;28;20432;-50
2023/12/19 07:07:05;;;;;;;6.40;5.60;;;7.40;99.90;;;;;;5244916;28;20477;-50
2023/12/19 07:09:38;;;;;;;6.33;5.70;;;7.30;99.90;;;;;;5244360;28;20207;-51
2023/12/19 07:12:10;;;;;;;10.70;5.50;;;7.30;99.90;;;;;;5244351;28;20231;-50
2023/12/19 07:14:41;;;;;;;7.93;5.20;;;7.30;99.90;;;;;;5243869;28;20440;-49
2023/12/19 07:17:12;;;;;;;6.40;5.60;;;7.50;99.90;;;;;;5242923;28;20460;-50
2023/12/19 07:19:47;;;;;;;6.50;5.23;;;7.40;99.90;;;;;;5243134;28;20498;-51
2023/12/19 07:22:17;;;;;;;6.33;5.43;;;7.50;99.90;;;;;;5243037;28;20527;-52
2023/12/19 07:24:51;;;;;;;11.50;5.60;;;7.50;99.90;;;;;;5243876;28;20838;-53
2023/12/19 07:27:24;;;;;;;6.53;5.60;;;7.40;99.90;;;;;;5241124;28;20436;-54
2023/12/19 07:29:55;;;;;;;7.80;5.13;;;7.50;99.90;;;;;;5243357;28;20451;-51
2023/12/19 07:32:26;;;;;;;8.90;6.07;;;7.50;99.90;;;;;;5244574;28;20995;-49
2023/12/19 07:34:57;;;;;;;6.83;5.37;;;7.50;99.90;;;;;;5240437;28;20221;-50
2023/12/19 07:37:27;;;;;;;6.17;5.57;;;7.40;99.90;;;;;;5238641;28;20258;-56
2023/12/19 07:39:59;;;;;;;10.30;6.80;;;7.40;99.90;;;;;;5240539;28;20242;-52
2023/12/19 07:42:30;;;;;;;7.73;6.33;;;7.40;99.90;;;;;;5216020;28;20232;-52
2023/12/19 07:45:02;;;;;;;7.57;6.00;;;7.30;99.90;;;;;;5234338;28;20440;-51
2023/12/19 07:47:33;;;;;;;8.40;6.53;;;7.40;99.90;;;;;;5237622;28;20190;-50
2023/12/19 07:50:05;;;;;;;9.20;7.57;;;7.40;99.90;;;;;;5240099;28;20538;-51
2023/12/19 07:52:36;;;;;;;9.53;7.57;;;7.20;99.90;;;;;;5245962;28;20182;-51
2023/12/19 07:55:10;;;;;;;12.77;8.17;;;7.10;99.90;;;;;;5243671;28;20460;-51
2023/12/19 07:57:40;;;;;;;9.80;7.30;;;7.20;99.90;;;;;;5242931;28;20468;-52
2023/12/19 08:00:12;;;;;;;8.30;6.97;;;7.20;99.90;;;;;;5243280;28;20829;-51
2023/12/19 08:02:43;;;;;;;9.40;7.30;;;7.30;99.90;;;;;;5243173;28;20183;-51
2023/12/19 08:05:14;;;;;;;12.30;8.10;;;7.20;99.90;;;;;;5245298;28;20451;-52
2023/12/19 08:07:45;;;;;;;11.97;8.07;;;7.10;99.90;;;;;;5229199;28;20194;-51
2023/12/19 08:10:16;;;;;;;11.70;7.87;;;7.10;99.90;;;;;;5223903;28;20275;-52
2023/12/19 08:12:46;;;;;;;11.43;7.40;;;7.20;99.90;;;;;;5247835;28;20290;-51
2023/12/19 08:15:17;;;;;;;14.37;7.43;;;7.20;99.90;;;;;;5241326;28;20539;-51
2023/12/19 08:17:51;;;;;;;9.70;7.80;;;7.10;99.90;;;;;;5243483;28;21025;-51
2023/12/19 08:20:22;;;;;;;14.70;8.17;;;7.10;99.90;;;;;;5245072;28;20464;-51
2023/12/19 08:22:53;;;;;;;9.80;7.90;;;7.10;99.90;;;;;;5246780;28;20797;-51
2023/12/19 08:25:24;;;;;;;9.40;7.43;;;7.10;99.90;;;;;;5248268;28;20421;-51
2023/12/19 08:27:55;;;;;;;12.87;8.80;;;7.00;99.90;;;;;;5246830;28;20220;-53
2023/12/19 08:30:30;;;;;;;18.00;8.43;;;7.10;99.90;;;;;;5244816;28;20207;-51
2023/12/19 08:33:01;;;;;;;16.03;8.20;;;7.00;99.90;;;;;;5230856;28;20502;-51
2023/12/19 08:35:32;;;;;;;10.23;8.43;;;6.90;99.90;;;;;;5244515;28;20468;-51
2023/12/19 08:38:03;;;;;;;11.87;8.70;;;6.90;99.90;;;;;;5247086;28;20881;-51
2023/12/19 08:40:34;;;;;;;16.07;8.57;;;7.00;99.90;;;;;;5246248;28;20209;-53
2023/12/19 08:43:05;;;;;;;12.07;8.23;;;6.80;99.90;;;;;;5248003;28;20261;-52
2023/12/19 08:45:35;;;;;;;19.83;10.20;;;6.80;99.90;;;;;;5227335;28;20187;-51
2023/12/19 08:48:07;;;;;;;18.00;8.60;;;6.80;99.90;;;;;;5244694;28;20182;-50
2023/12/19 08:50:37;;;;;;;15.90;9.40;;;6.80;99.90;;;;;;5246315;28;20205;-51
2023/12/19 08:53:08;;;;;;;11.40;8.50;;;6.70;99.90;;;;;;5244513;28;20531;-51
2023/12/19 08:55:39;;;;;;;10.93;8.70;;;6.70;99.90;;;;;;5246207;28;20186;-51
2023/12/19 08:58:10;;;;;;;16.40;9.73;;;6.70;99.90;;;;;;5246837;28;20210;-51
2023/12/19 09:00:41;;;;;;;14.17;8.67;;;6.70;99.90;;;;;;5242633;28;20454;-50
2023/12/19 09:03:12;;;;;;;15.50;9.83;;;6.70;99.90;;;;;;5246300;28;20631;-51
2023/12/19 09:05:43;;;;;;;10.27;8.43;;;6.80;99.90;;;;;;5246736;28;20178;-50
2023/12/19 09:08:14;;;;;;;20.80;8.90;;;6.80;99.90;;;;;;5248147;28;20440;-51
2023/12/19 09:10:46;;;;;;;10.37;8.50;;;6.80;99.90;;;;;;5245963;28;20456;-50
2023/12/19 09:13:17;;;;;;;14.03;9.10;;;6.80;99.90;;;;;;5247172;28;20183;-51
2023/12/19 09:15:48;;;;;;;14.37;9.00;;;6.80;99.90;;;;;;5245302;28;20434;-50
2023/12/19 09:18:18;;;;;;;14.50;9.40;;;6.70;99.90;;;;;;5246663;28;20452;-52
2023/12/19 09:20:49;;;;;;;18.80;8.50;;;6.70;99.90;;;;;;5247115;28;20560;-51
2023/12/19 09:23:20;;;;;;;17.07;10.20;;;6.70;99.90;;;;;;5247581;28;20235;-51
2023/12/19 09:25:51;;;;;;;20.53;9.07;;;6.70;99.90;;;;;;5249176;28;20167;-51
2023/12/19 09:28:23;;;;;;;18.50;9.17;;;6.80;99.90;;;;;;5246309;28;20192;-52
2023/12/19 09:30:54;;;;;;;13.73;8.93;;;6.80;99.90;;;;;;5246472;28;20463;-51
2023/12/19 09:33:25;;;;;;;10.97;8.73;;;6.80;99.90;;;;;;5247837;28;20810;-52
2023/12/19 09:35:56;;;;;;;21.90;9.13;;;6.90;99.90;;;;;;5247175;28;20186;-51
2023/12/19 09:38:27;;;;;;;17.43;10.63;;;6.90;99.90;;;;;;5250164;28;20209;-52
2023/12/19 09:40:58;;;;;;;20.27;10.60;;;6.90;99.90;;;;;;5243475;28;20232;-51
2023/12/19 09:43:33;;;;;;;15.63;9.63;;;6.90;99.90;;;;;;5247691;28;20488;-52
2023/12/19 09:46:04;;;;;;;10.73;7.90;;;6.90;99.90;;;;;;5249748;28;20911;-50
2023/12/19 09:48:37;;;;;;;17.30;9.90;;;7.00;99.90;;;;;;5247650;28;20448;-51
2023/12/19 09:51:18;;;;;;;12.50;8.40;;;7.00;99.90;;;;;;5242225;28;20483;-52
2023/12/19 09:53:50;;;;;;;11.10;7.77;;;7.00;99.90;;;;;;5244704;28;21028;-52
2023/12/19 09:56:25;;;;;;;15.70;8.73;;;6.90;99.90;;;;;;5241820;28;20431;-51
2023/12/19 09:59:00;;;;;;;9.37;7.83;;;7.00;99.90;;;;;;5241697;28;20545;-53
2023/12/19 10:01:33;;;;;;;13.47;8.83;;;6.90;99.90;;;;;;5228312;28;20437;-50
2023/12/19 10:04:08;;;;;;;9.77;8.23;;;6.90;99.90;;;;;;5244329;28;20437;-50
2023/12/19 10:06:57;;;;;;;10.43;8.03;;;6.90;99.90;;;;;;5243886;28;20436;-56
2023/12/19 10:09:28;;;;;;;13.57;8.17;;;6.90;99.90;;;;;;5241937;28;20459;-52
2023/12/19 10:12:12;;;;;;;10.50;8.20;;;6.90;99.90;;;;;;5235741;28;20502;-53
2023/12/19 10:14:46;;;;;;;13.83;8.40;;;7.00;99.90;;;;;;5241132;28;20584;-52
2023/12/19 10:17:17;;;;;;;8.40;7.40;;;6.90;99.90;;;;;;5237642;28;20483;-52
2023/12/19 10:19:48;;;;;;;13.37;8.03;;;7.00;99.90;;;;;;5244856;28;20543;-53
2023/12/19 10:22:20;;;;;;;12.23;7.47;;;7.00;99.90;;;;;;5243203;28;20849;-53
2023/12/19 10:24:59;;;;;;;9.60;8.23;;;6.90;99.90;;;;;;5239817;28;20440;-53
2023/12/19 10:27:30;;;;;;;12.37;7.90;;;6.90;99.90;;;;;;5242337;28;21036;-51
2023/12/19 10:30:21;;;;;;;11.73;8.80;;;6.90;99.90;;;;;;5243988;28;20460;-51
2023/12/19 10:32:55;;;;;;;12.37;8.87;;;6.90;99.90;;;;;;5243722;28;21157;-52
2023/12/19 10:35:46;;;;;;;12.17;8.53;;;6.90;99.90;;;;;;5245304;28;20426;-51
2023/12/19 10:38:17;;;;;;;15.23;8.70;;;6.80;99.90;;;;;;5242738;28;20476;-52
2023/12/19 10:41:02;;;;;;;13.80;9.70;;;6.90;99.90;;;;;;5231690;28;20452;-52
2023/12/19 10:43:43;;;;;;;15.63;8.77;;;6.80;99.90;;;;;;5229284;28;20451;-52
2023/12/19 10:46:17;;;;;;;14.03;9.20;;;6.80;99.90;;;;;;5229017;28;20920;-51
2023/12/19 10:48:48;;;;;;;11.63;9.07;;;6.70;99.90;;;;;;5247362;28;20531;-52
2023/12/19 10:51:41;;;;;;;13.93;10.17;;;6.70;99.90;;;;;;5242192;28;20979;-52
2023/12/19 10:54:14;;;;;;;23.63;11.60;;;6.60;99.90;;;;;;5241667;28;20437;-52
2023/12/19 10:57:11;;;;;;;16.50;10.10;;;6.50;99.90;;;;;;5240465;28;20558;-51
2023/12/19 11:00:09;;;;;;;15.13;9.57;;;6.70;99.90;;;;;;5236604;28;20469;-51
2023/12/19 11:02:45;;;;;;;20.53;10.57;;;6.70;99.90;;;;;;5241820;28;20471;-52
2023/12/19 11:05:21;;;;;;;20.30;11.07;;;6.70;99.90;;;;;;5242279;28;20497;-54
2023/12/19 11:07:54;;;;;;;14.80;9.27;;;6.70;99.90;;;;;;5241404;28;20416;-52
2023/12/19 11:10:30;;;;;;;13.40;8.60;;;6.80;99.90;;;;;;5240934;28;20562;-53
2023/12/19 11:13:02;;;;;;;14.13;9.07;;;6.80;99.90;;;;;;5241527;28;20439;-52
2023/12/19 11:15:38;;;;;;;15.27;9.90;;;6.80;99.90;;;;;;5236198;28;20446;-52
2023/12/19 11:18:52;;;;;;;18.47;9.23;;;6.80;99.90;;;;;;5244001;28;21082;-51
2023/12/19 11:21:59;;;;;;;16.90;10.50;;;6.70;99.90;;;;;;5243809;28;20452;-52
2023/12/19 11:24:43;;;;;;;12.67;9.77;;;6.70;99.90;;;;;;5245601;28;20435;-52
2023/12/19 11:27:19;;;;;;;10.43;8.80;;;6.70;99.90;;;;;;5245389;28;20523;-52
2023/12/19 11:29:55;;;;;;;15.50;10.77;;;6.80;99.90;;;;;;5245143;28;20789;-53
2023/12/19 11:32:29;;;;;;;16.23;10.70;;;6.70;99.90;;;;;;5248376;28;20444;-52
2023/12/19 11:35:06;;;;;;;14.47;10.53;;;6.70;99.90;;;;;;5244001;28;20416;-52
2023/12/19 11:37:46;;;;;;;21.67;12.20;;;6.70;99.90;;;;;;5246346;28;20467;-53
2023/12/19 11:40:48;;;;;;;17.33;11.20;;;6.70;99.90;;;;;;5244962;28;21226;-52
2023/12/19 11:43:28;;;;;;;14.97;10.57;;;6.60;99.90;;;;;;5244060;28;20428;-53
2023/12/19 11:46:06;;;;;;;18.03;10.57;;;6.60;99.90;;;;;;5245525;28;20454;-53
2023/12/19 11:48:37;;;;;;;14.30;10.60;;;6.60;99.90;;;;;;5244110;28;20974;-53
2023/12/19 11:51:09;;;;;;;14.03;10.80;;;6.70;99.90;;;;;;5241864;28;20542;-51
2023/12/19 11:53:41;;;;;;;16.93;10.63;;;6.70;99.90;;;;;;5245719;28;20443;-53
2023/12/19 11:56:13;;;;;;;23.90;10.07;;;6.70;99.90;;;;;;5243783;28;20467;-54
2023/12/19 11:58:50;;;;;;;17.13;11.37;;;6.70;99.90;;;;;;5231652;28;20476;-53
2023/12/19 12:01:22;;;;;;;14.37;9.97;;;6.70;99.90;;;;;;5245326;28;21171;-52
2023/12/19 12:04:07;;;;;;;17.20;10.97;;;6.70;99.90;;;;;;5244613;28;20946;-54
2023/12/19 12:06:39;;;;;;;15.50;10.57;;;6.70;99.90;;;;;;5243666;28;20440;-54
2023/12/19 12:09:10;;;;;;;14.77;10.07;;;6.70;99.90;;;;;;5241531;28;20784;-53
2023/12/19 12:11:52;;;;;;;18.50;11.60;;;6.80;99.90;;;;;;5247411;28;20527;-53
2023/12/19 12:14:24;;;;;;;21.77;10.80;;;6.80;99.90;;;;;;5247338;28;20466;-52
2023/12/19 12:16:58;;;;;;;20.20;11.67;;;6.80;99.90;;;;;;5245282;28;20448;-57
2023/12/19 12:19:30;;;;;;;20.97;10.63;;;6.80;99.90;;;;;;5244872;28;20495;-53
2023/12/19 12:22:01;;;;;;;22.73;11.97;;;6.80;99.90;;;;;;5242493;28;20437;-52
2023/12/19 12:24:32;;;;;;;19.10;10.87;;;6.80;99.90;;;;;;5240261;28;20793;-53
2023/12/19 12:27:09;;;;;;;16.77;11.17;;;6.70;99.90;;;;;;5241381;28;20490;-52
2023/12/19 12:29:40;;;;;;;16.90;12.30;;;6.70;99.90;;;;;;5238064;28;20998;-54
2023/12/19 12:32:12;;;;;;;19.10;11.50;;;6.80;99.90;;;;;;5245155;28;20435;-52
2023/12/19 12:34:46;;;;;;;20.93;11.90;;;6.80;99.90;;;;;;5245431;28;20179;-52
2023/12/19 12:37:22;;;;;;;18.03;12.43;;;6.80;99.90;;;;;;5228070;28;20558;-52
2023/12/19 12:40:04;;;;;;;17.40;12.70;;;6.80;99.90;;;;;;5243625;28;20451;-53
2023/12/19 12:42:35;;;;;;;23.63;13.33;;;6.80;99.90;;;;;;5242109;28;20440;-52
2023/12/19 12:45:06;;;;;;;21.33;13.60;;;6.80;99.90;;;;;;5243343;28;20494;-53
2023/12/19 12:47:40;;;;;;;20.60;14.40;;;6.80;99.90;;;;;;5242168;28;20218;-53
2023/12/19 12:50:10;;;;;;;20.80;13.60;;;6.80;99.90;;;;;;5244069;28;21006;-54
2023/12/19 12:52:41;;;;;;;22.70;13.20;;;6.80;99.90;;;;;;5243925;28;20436;-53
2023/12/19 12:55:16;;;;;;;21.07;13.30;;;6.70;99.90;;;;;;5243756;28;20213;-53
2023/12/19 12:58:02;;;;;;;19.80;12.93;;;6.80;99.90;;;;;;5244036;28;20806;-53
2023/12/19 13:00:33;;;;;;;16.13;11.33;;;6.80;99.90;;;;;;5240642;28;20457;-54
2023/12/19 13:03:04;;;;;;;19.20;13.40;;;6.70;99.90;;;;;;5242331;28;20462;-53
2023/12/19 13:05:35;;;;;;;24.40;14.93;;;6.70;99.90;;;;;;5241408;28;20182;-51
2023/12/19 13:08:11;;;;;;;18.73;14.00;;;6.60;99.90;;;;;;5242858;28;20490;-55
2023/12/19 13:10:41;;;;;;;20.40;13.03;;;6.70;99.90;;;;;;5243343;28;20209;-52
2023/12/19 13:13:13;;;;;;;19.70;13.30;;;6.70;99.90;;;;;;5240443;28;20439;-52
2023/12/19 13:15:44;;;;;;;18.93;12.73;;;6.80;99.90;;;;;;5241476;28;20273;-55
2023/12/19 13:18:15;;;;;;;23.40;14.10;;;6.70;99.90;;;;;;5242958;28;21221;-54